Time;durP1;ratioP1;P1;durP2;ratioP2;P2;SDS_P1;SDS_P2;PMS_P1;PMS_P2;Temp;Humidity;BMP_temperature;BMP_pressure;BME280_temperature;BME280_humidity;BME280_pressure;Samples;Min_cycle;Max_cycle;Signal;HPM_P1;HPM_P2
2020/12/11 00:02:05;;;;;;;19.97;14.63;;;;;;;2.25;83.75;95627.19;4971761;28;20254;-73
2020/12/11 00:04:30;;;;;;;19.93;15.23;;;;;;;2.19;84.42;95630.59;4987926;28;20608;-73
2020/12/11 00:06:59;;;;;;;20.17;14.07;;;;;;;2.22;83.49;95640.53;4972086;28;20280;-73
2020/12/11 00:09:28;;;;;;;20.97;14.30;;;;;;;2.06;84.16;95637.38;4972669;28;20216;-73
2020/12/11 00:11:54;;;;;;;19.33;14.10;;;;;;;2.07;83.73;95636.38;4972025;28;20195;-73
2020/12/11 00:14:19;;;;;;;18.97;14.43;;;;;;;2.13;83.77;95641.72;4971843;28;20185;-72
2020/12/11 00:16:45;;;;;;;17.63;13.97;;;;;;;2.37;82.36;95630.75;4981926;28;20247;-73
2020/12/11 00:19:11;;;;;;;25.10;15.07;;;;;;;2.43;82.22;95624.75;5010377;28;20225;-73
2020/12/11 00:21:44;;;;;;;18.87;13.93;;;;;;;2.34;82.28;95611.25;5011223;28;20187;-73
2020/12/11 00:24:11;;;;;;;20.27;14.77;;;;;;;2.35;81.29;95624.97;5011416;28;20219;-73
2020/12/11 00:26:36;;;;;;;16.77;12.80;;;;;;;2.23;81.17;95619.63;5017037;28;20187;-73
2020/12/11 00:29:03;;;;;;;16.90;12.73;;;;;;;2.32;80.70;95631.38;5017329;28;20248;-72
2020/12/11 00:31:28;;;;;;;16.37;12.80;;;;;;;2.22;81.44;95631.00;5011485;28;20179;-73
2020/12/11 00:33:54;;;;;;;15.40;11.97;;;;;;;2.22;81.89;95623.25;5009974;28;20518;-73
2020/12/11 00:36:21;;;;;;;17.83;12.00;;;;;;;2.36;80.46;95616.22;5011200;28;20274;-73
2020/12/11 00:38:46;;;;;;;14.50;11.67;;;;;;;2.32;79.14;95628.78;5010280;28;20270;-73
2020/12/11 00:41:12;;;;;;;14.43;11.53;;;;;;;2.33;79.76;95624.41;5012839;28;20274;-72
2020/12/11 00:43:38;;;;;;;14.23;11.53;;;;;;;2.30;79.46;95625.59;5015297;28;20283;-72
2020/12/11 00:46:03;;;;;;;13.40;10.93;;;;;;;2.30;79.26;95630.75;5014218;28;20187;-72
2020/12/11 00:48:29;;;;;;;14.67;11.97;;;;;;;2.23;80.01;95627.41;5015081;28;20598;-72
2020/12/11 00:50:54;;;;;;;13.97;11.80;;;;;;;2.21;79.56;95632.00;5013941;28;20590;-72
2020/12/11 00:53:20;;;;;;;13.13;10.47;;;;;;;2.25;79.51;95627.19;5014553;28;20186;-72
2020/12/11 00:55:47;;;;;;;12.57;10.30;;;;;;;2.41;78.26;95613.81;5004891;28;20203;-72
2020/12/11 00:58:12;;;;;;;12.40;9.97;;;;;;;2.27;78.92;95614.88;5013670;28;20718;-72
2020/12/11 01:00:37;;;;;;;12.90;10.83;;;;;;;2.34;78.98;95615.66;5014769;28;20187;-72
2020/12/11 01:03:03;;;;;;;13.37;10.53;;;;;;;2.40;78.93;95612.22;5013690;28;20211;-72
2020/12/11 01:05:29;;;;;;;10.93;9.80;;;;;;;2.59;76.59;95613.97;5015049;28;20184;-72
2020/12/11 01:07:55;;;;;;;12.67;10.63;;;;;;;2.39;77.12;95600.31;5018684;28;20179;-72
2020/12/11 01:10:20;;;;;;;11.77;9.90;;;;;;;2.30;78.28;95586.03;5022267;28;20546;-72
2020/12/11 01:12:46;;;;;;;12.77;10.30;;;;;;;2.20;78.73;95583.06;5012295;28;20195;-73
2020/12/11 01:15:11;;;;;;;11.60;9.97;;;;;;;2.03;78.67;95586.09;5014538;28;20179;-72
2020/12/11 01:17:36;;;;;;;13.20;10.00;;;;;;;2.09;77.93;95589.66;5009930;28;20362;-73
2020/12/11 01:20:03;;;;;;;12.67;10.10;;;;;;;1.88;80.90;95579.59;5012696;28;20187;-72
2020/12/11 01:22:29;;;;;;;13.03;10.40;;;;;;;2.00;80.04;95577.97;5014071;28;20274;-72
2020/12/11 01:24:54;;;;;;;11.47;9.73;;;;;;;2.10;78.47;95573.19;5012151;28;20344;-72
2020/12/11 01:27:19;;;;;;;10.40;9.13;;;;;;;1.92;79.15;95560.91;5014891;28;20284;-71
2020/12/11 01:29:45;;;;;;;10.97;9.30;;;;;;;1.85;79.39;95567.06;5017411;28;20191;-72
2020/12/11 01:32:10;;;;;;;13.27;10.30;;;;;;;1.95;79.08;95557.13;5014445;28;20282;-72
2020/12/11 01:34:35;;;;;;;12.90;10.77;;;;;;;1.89;79.93;95547.59;5013858;28;20184;-72
2020/12/11 01:37:05;;;;;;;10.87;9.67;;;;;;;1.94;77.89;95540.84;5013540;28;20202;-72
2020/12/11 01:39:31;;;;;;;11.70;9.53;;;;;;;1.84;78.68;95544.84;5010359;28;20179;-72
2020/12/11 01:41:57;;;;;;;13.83;10.53;;;;;;;1.55;80.00;95525.44;5001745;28;20207;-72
2020/12/11 01:44:22;;;;;;;11.93;9.87;;;;;;;1.52;80.12;95515.47;5013808;28;20644;-72
2020/12/11 01:46:50;;;;;;;12.63;10.60;;;;;;;1.50;80.27;95518.28;5013231;28;20203;-72
2020/12/11 01:49:16;;;;;;;12.20;10.17;;;;;;;1.46;79.63;95527.41;4998568;28;20237;-72
2020/12/11 01:51:44;;;;;;;12.63;10.50;;;;;;;1.47;79.48;95523.84;5013415;28;20191;-72
2020/12/11 01:54:09;;;;;;;11.43;10.20;;;;;;;1.47;79.98;95515.28;5013347;28;20629;-73
2020/12/11 01:56:55;;;;;;;14.17;10.77;;;;;;;1.43;80.53;95517.50;5007182;28;20195;-74
2020/12/11 01:59:29;;;;;;;11.30;9.80;;;;;;;1.22;80.92;95522.88;4998393;28;20188;-73
2020/12/11 02:01:58;;;;;;;12.20;10.80;;;;;;;1.15;81.90;95525.47;5012900;28;20199;-73
2020/12/11 02:04:23;;;;;;;11.93;10.40;;;;;;;1.10;82.70;95527.84;5014043;28;20190;-72
2020/12/11 02:06:51;;;;;;;13.53;10.30;;;;;;;1.17;82.28;95533.00;5011181;28;20640;-73
2020/12/11 02:09:19;;;;;;;11.50;9.57;;;;;;;1.22;81.46;95534.00;5013271;28;20215;-73
2020/12/11 02:11:45;;;;;;;12.17;10.03;;;;;;;1.16;82.03;95529.63;4996362;28;20179;-73
2020/12/11 02:14:10;;;;;;;9.77;8.67;;;;;;;1.26;81.61;95513.75;5013371;28;20190;-73
2020/12/11 02:16:36;;;;;;;11.27;9.53;;;;;;;1.51;80.69;95499.19;4997198;28;20703;-72
2020/12/11 02:19:01;;;;;;;12.07;9.93;;;;;;;1.42;81.06;95494.47;5012278;28;20725;-73
2020/12/11 02:21:31;;;;;;;13.20;10.20;;;;;;;1.31;81.11;95495.06;5013470;28;20769;-72
2020/12/11 02:23:56;;;;;;;11.03;9.83;;;;;;;1.15;82.07;95502.22;5001150;28;20234;-73
2020/12/11 02:26:24;;;;;;;12.37;10.20;;;;;;;1.17;82.38;95502.81;5014713;28;20187;-73
2020/12/11 02:28:49;;;;;;;11.90;10.03;;;;;;;1.08;83.25;95493.69;5012369;28;20184;-73
2020/12/11 02:31:15;;;;;;;12.93;10.00;;;;;;;1.14;83.28;95487.75;5013184;28;20182;-73
2020/12/11 02:33:41;;;;;;;13.43;10.70;;;;;;;1.02;84.30;95484.16;4999311;28;20187;-74
2020/12/11 02:36:06;;;;;;;13.13;10.80;;;;;;;0.90;85.32;95478.03;5003353;28;20221;-73
2020/12/11 02:38:31;;;;;;;13.57;11.27;;;;;;;0.98;84.50;95474.47;5012828;28;20326;-73
2020/12/11 02:41:01;;;;;;;13.77;11.37;;;;;;;1.03;84.30;95459.16;5011998;28;20187;-72
2020/12/11 02:43:26;;;;;;;14.00;11.17;;;;;;;0.98;85.08;95459.78;5013525;28;20202;-72
2020/12/11 02:45:52;;;;;;;14.20;11.23;;;;;;;0.97;85.33;95450.44;5012319;28;20183;-73
2020/12/11 02:48:18;;;;;;;15.10;12.03;;;;;;;1.06;84.72;95445.88;5012372;28;20206;-73
2020/12/11 02:50:44;;;;;;;14.97;11.83;;;;;;;1.01;84.37;95440.50;5012158;28;20253;-74
2020/12/11 02:53:10;;;;;;;16.00;12.90;;;;;;;0.94;85.34;95443.13;5012755;28;20175;-73
2020/12/11 02:55:35;;;;;;;17.03;12.97;;;;;;;0.78;86.31;95451.25;5013120;28;20186;-73
2020/12/11 02:58:01;;;;;;;17.33;12.70;;;;;;;0.86;86.35;95434.78;5011740;28;20267;-75
2020/12/11 03:00:26;;;;;;;18.90;14.47;;;;;;;1.00;85.99;95418.31;5012962;28;20187;-74
2020/12/11 03:02:52;;;;;;;18.50;13.23;;;;;;;0.83;86.93;95411.00;5011687;28;20246;-72
2020/12/11 03:05:17;;;;;;;19.37;13.93;;;;;;;0.82;86.08;95401.66;5013300;28;20206;-73
2020/12/11 03:07:44;;;;;;;19.63;14.20;;;;;;;0.72;86.45;95390.97;5011951;28;20184;-73
2020/12/11 03:10:10;;;;;;;18.93;13.30;;;;;;;0.73;85.92;95378.84;5019146;28;20184;-73
2020/12/11 03:12:35;;;;;;;20.90;14.63;;;;;;;0.57;86.71;95380.06;5012609;28;20282;-72
2020/12/11 03:15:01;;;;;;;18.03;13.33;;;;;;;0.69;85.22;95377.66;5012054;28;20218;-72
2020/12/11 03:17:27;;;;;;;19.83;14.17;;;;;;;0.63;85.22;95384.41;5025014;28;20281;-72
2020/12/11 03:19:52;;;;;;;19.73;14.07;;;;;;;0.60;85.09;95387.41;5011456;28;20183;-72
2020/12/11 03:22:18;;;;;;;20.83;13.80;;;;;;;0.40;86.33;95394.31;5012527;28;20737;-72
2020/12/11 03:24:43;;;;;;;18.63;13.80;;;;;;;0.52;86.13;95384.22;5010891;28;20274;-73
2020/12/11 03:27:10;;;;;;;20.23;13.63;;;;;;;0.40;86.91;95389.97;5012103;28;20202;-72
2020/12/11 03:29:36;;;;;;;20.27;13.63;;;;;;;0.50;86.80;95393.94;5007961;28;20213;-71
2020/12/11 03:32:01;;;;;;;20.07;13.53;;;;;;;0.54;85.86;95383.03;5000633;28;20194;-72
2020/12/11 03:34:26;;;;;;;18.20;13.63;;;;;;;0.58;85.90;95388.56;5012071;28;20266;-72
2020/12/11 03:36:52;;;;;;;18.63;13.33;;;;;;;0.50;86.42;95386.22;5011322;28;20258;-73
2020/12/11 03:39:17;;;;;;;18.50;14.00;;;;;;;0.48;86.77;95390.75;5012519;28;20231;-72
2020/12/11 03:41:43;;;;;;;18.47;13.53;;;;;;;0.37;86.89;95385.22;5011400;28;20230;-73
2020/12/11 03:44:09;;;;;;;18.07;13.83;;;;;;;0.41;86.71;95388.19;5012262;28;20210;-72
2020/12/11 03:46:34;;;;;;;18.00;13.60;;;;;;;0.43;86.73;95370.75;5021967;28;20606;-72
2020/12/11 03:48:59;;;;;;;16.87;13.03;;;;;;;0.44;86.43;95372.34;5011388;28;20179;-72
2020/12/11 03:51:25;;;;;;;19.47;14.00;;;;;;;0.68;86.19;95358.81;5011344;28;20187;-72
2020/12/11 03:53:50;;;;;;;19.43;14.23;;;;;;;0.60;86.03;95356.47;5011149;28;20197;-72
2020/12/11 03:56:17;;;;;;;20.63;14.37;;;;;;;0.56;86.61;95344.19;5011877;28;20547;-72
2020/12/11 03:58:44;;;;;;;20.23;14.57;;;;;;;0.62;86.40;95341.56;5010534;28;20221;-73
2020/12/11 04:01:10;;;;;;;22.17;14.27;;;;;;;0.25;88.15;95337.84;5009886;28;20191;-72
2020/12/11 04:03:36;;;;;;;20.00;14.70;;;;;;;0.15;88.78;95344.38;5011564;28;20656;-72
2020/12/11 04:06:04;;;;;;;19.17;13.60;;;;;;;0.12;89.30;95332.66;5011007;28;20195;-72
2020/12/11 04:08:29;;;;;;;20.77;14.83;;;;;;;0.34;88.16;95330.69;5011791;28;20183;-72
2020/12/11 04:10:55;;;;;;;21.63;15.03;;;;;;;0.43;87.29;95326.16;5010982;28;20547;-72
2020/12/11 04:13:20;;;;;;;20.57;14.33;;;;;;;0.28;88.20;95319.41;5011580;28;20262;-72
2020/12/11 04:15:45;;;;;;;22.03;15.43;;;;;;;0.38;87.73;95313.88;5010435;28;20671;-72
2020/12/11 04:18:11;;;;;;;20.40;14.63;;;;;;;0.35;87.94;95294.44;5011325;28;20310;-71
2020/12/11 04:20:36;;;;;;;21.43;14.53;;;;;;;0.31;88.07;95289.88;5005793;28;20194;-72
2020/12/11 04:23:02;;;;;;;20.97;14.10;;;;;;;0.18;88.89;95289.88;5010656;28;20263;-73
2020/12/11 04:25:27;;;;;;;20.90;14.67;;;;;;;0.19;89.21;95283.72;5011458;28;20192;-73
2020/12/11 04:27:52;;;;;;;21.03;14.43;;;;;;;0.13;89.06;95287.09;4998841;28;20187;-72
2020/12/11 04:30:18;;;;;;;19.40;14.67;;;;;;;0.17;90.00;95296.03;5012022;28;20187;-73
2020/12/11 04:32:43;;;;;;;22.30;15.07;;;;;;;0.23;88.80;95293.44;5010630;28;20710;-73
2020/12/11 04:35:08;;;;;;;18.83;14.17;;;;;;;0.17;89.23;95294.22;5011013;28;20266;-73
2020/12/11 04:37:34;;;;;;;20.40;14.73;;;;;;;0.21;89.17;95292.88;5011818;28;20217;-72
2020/12/11 04:39:59;;;;;;;21.13;13.87;;;;;;;0.11;89.57;95289.91;5010465;28;20195;-72
2020/12/11 04:42:26;;;;;;;21.07;14.67;;;;;;;0.30;88.80;95290.88;5010302;28;20803;-73
2020/12/11 04:44:52;;;;;;;20.10;14.40;;;;;;;0.38;88.02;95285.53;5010269;28;20671;-73
2020/12/11 04:47:20;;;;;;;19.60;14.43;;;;;;;0.21;88.92;95286.91;5011644;28;20187;-72
2020/12/11 04:49:45;;;;;;;20.93;15.23;;;;;;;0.29;88.33;95281.53;5010783;28;20188;-72
2020/12/11 04:52:12;;;;;;;21.90;12.93;;;;;;;0.04;89.56;95285.72;5011199;28;20201;-73
2020/12/11 04:54:38;;;;;;;21.20;14.60;;;;;;;0.04;89.54;95289.09;5011475;28;20203;-73
2020/12/11 04:57:08;;;;;;;19.90;13.97;;;;;;;0.03;89.79;95290.09;5010506;28;20229;-73
2020/12/11 04:59:34;;;;;;;18.67;13.77;;;;;;;0.02;88.98;95290.28;5000361;28;20172;-73
2020/12/11 05:02:00;;;;;;;20.70;15.00;;;;;;;-0.06;89.27;95278.41;5010515;28;20702;-73
2020/12/11 05:04:26;;;;;;;21.20;14.07;;;;;;;-0.04;88.86;95274.63;5011201;28;20678;-73
2020/12/11 05:06:51;;;;;;;19.43;13.97;;;;;;;-0.08;88.91;95265.72;5010208;28;20195;-73
2020/12/11 05:09:21;;;;;;;20.57;14.57;;;;;;;-0.20;89.74;95259.56;5011375;28;20545;-72
2020/12/11 05:11:48;;;;;;;19.13;14.07;;;;;;;-0.32;89.91;95261.13;5009878;28;20538;-72
2020/12/11 05:14:34;;;;;;;22.03;15.20;;;;;;;-0.01;89.14;95265.72;5010837;28;20186;-73
2020/12/11 05:17:00;;;;;;;22.33;15.10;;;;;;;-0.18;89.31;95267.91;5008795;28;20222;-73
2020/12/11 05:19:27;;;;;;;21.97;14.50;;;;;;;-0.30;89.81;95260.94;5011032;28;20249;-73
2020/12/11 05:21:53;;;;;;;18.30;14.07;;;;;;;-0.22;89.00;95260.75;5009867;28;20298;-73
2020/12/11 05:24:19;;;;;;;20.20;14.10;;;;;;;-0.23;89.28;95259.97;5010490;28;20270;-73
2020/12/11 05:26:44;;;;;;;20.67;14.27;;;;;;;-0.41;90.31;95262.31;5000234;28;20190;-73
2020/12/11 05:29:10;;;;;;;21.13;14.40;;;;;;;-0.35;89.84;95246.09;5013587;28;20176;-73
2020/12/11 05:31:35;;;;;;;22.37;14.80;;;;;;;-0.37;88.88;95248.06;5014467;28;20189;-73
2020/12/11 05:34:11;;;;;;;20.50;13.83;;;;;;;-0.29;88.97;95265.91;5013358;28;20236;-73
2020/12/11 05:36:52;;;;;;;21.87;14.47;;;;;;;-0.15;87.60;95259.78;5014213;28;20214;-73
2020/12/11 05:39:32;;;;;;;22.43;14.27;;;;;;;-0.33;88.16;95272.41;5013432;28;20261;-72
2020/12/11 05:42:01;;;;;;;22.97;14.87;;;;;;;-0.43;88.87;95264.28;5013437;28;20249;-73
2020/12/11 05:44:33;;;;;;;18.90;13.47;;;;;;;-0.48;88.90;95267.47;5021123;28;20203;-72
2020/12/11 05:47:21;;;;;;;20.70;14.47;;;;;;;-0.48;88.64;95270.03;5018674;28;20782;-72
2020/12/11 05:49:47;;;;;;;20.57;13.67;;;;;;;-0.60;88.52;95276.72;5013464;28;20183;-72
2020/12/11 05:52:17;;;;;;;20.87;14.47;;;;;;;-0.53;88.62;95274.97;5013446;28;20187;-73
2020/12/11 05:54:47;;;;;;;20.23;14.17;;;;;;;-0.54;88.34;95264.88;5013291;28;20263;-72
2020/12/11 05:57:16;;;;;;;21.23;13.80;;;;;;;-0.40;87.63;95266.50;5013568;28;20222;-72
2020/12/11 05:59:43;;;;;;;19.93;13.33;;;;;;;-0.63;88.46;95263.47;5012163;28;20345;-73
2020/12/11 06:02:12;;;;;;;21.67;14.00;;;;;;;-0.59;88.04;95257.75;5013665;28;20264;-73
2020/12/11 06:04:38;;;;;;;20.17;13.77;;;;;;;-0.47;87.77;95252.81;5013725;28;20183;-73
2020/12/11 06:07:11;;;;;;;21.50;14.63;;;;;;;-0.59;88.49;95239.72;5012751;28;20210;-72
2020/12/11 06:09:37;;;;;;;22.47;15.13;;;;;;;-0.49;87.66;95241.91;5012433;28;20187;-72
2020/12/11 06:12:08;;;;;;;22.90;14.93;;;;;;;-0.50;88.26;95242.91;5012789;28;20183;-72
2020/12/11 06:15:02;;;;;;;23.83;14.87;;;;;;;-0.47;88.16;95242.53;5013624;28;20175;-72
2020/12/11 06:17:32;;;;;;;21.93;14.50;;;;;;;-0.77;89.07;95249.78;5010613;28;20624;-72
2020/12/11 06:20:00;;;;;;;22.90;14.40;;;;;;;-0.64;88.54;95254.97;5013363;28;20241;-72
2020/12/11 06:22:26;;;;;;;21.53;14.20;;;;;;;-0.65;88.79;95255.94;5004068;28;20208;-72
2020/12/11 06:24:51;;;;;;;20.17;13.73;;;;;;;-0.69;89.04;95254.75;5005964;28;20286;-72
2020/12/11 06:27:29;;;;;;;22.33;14.33;;;;;;;-0.52;88.28;95257.75;5005151;28;20188;-72
2020/12/11 06:29:54;;;;;;;21.83;14.53;;;;;;;-0.49;89.73;95249.63;5002672;28;20683;-73
2020/12/11 06:32:32;;;;;;;22.37;15.13;;;;;;;-0.47;88.58;95245.09;5013477;28;20199;-72
2020/12/11 06:35:11;;;;;;;20.83;14.17;;;;;;;-0.56;89.32;95241.13;5012121;28;20175;-73
2020/12/11 06:37:37;;;;;;;21.27;14.60;;;;;;;-0.61;88.42;95231.41;5013445;28;20194;-74
2020/12/11 06:40:03;;;;;;;21.73;14.10;;;;;;;-0.53;87.78;95217.56;5011781;28;20322;-73
2020/12/11 06:42:35;;;;;;;22.27;14.43;;;;;;;-0.78;89.46;95203.69;5012958;28;20747;-75
2020/12/11 06:45:23;;;;;;;21.57;14.00;;;;;;;-0.63;89.14;95187.09;5012148;28;20414;-74
2020/12/11 06:47:53;;;;;;;22.63;14.80;;;;;;;-0.65;88.52;95185.69;5012491;28;20171;-74
2020/12/11 06:50:20;;;;;;;22.67;15.00;;;;;;;-0.75;88.85;95175.00;5012649;28;20180;-74
2020/12/11 06:52:46;;;;;;;20.80;14.33;;;;;;;-0.76;88.49;95188.84;5011712;28;20187;-74
2020/12/11 06:55:12;;;;;;;22.80;15.33;;;;;;;-0.79;88.75;95176.38;5012104;28;20198;-75
2020/12/11 06:57:40;;;;;;;19.50;13.53;;;;;;;-0.78;88.88;95176.19;5000797;28;20180;-74
2020/12/11 07:00:29;;;;;;;22.23;14.30;;;;;;;-0.79;88.58;95176.38;5012076;28;20686;-74
2020/12/11 07:03:21;;;;;;;21.80;14.10;;;;;;;-0.69;88.77;95174.22;5011669;28;20249;-74
2020/12/11 07:05:55;;;;;;;21.97;12.53;;;;;;;-0.18;99.51;95180.38;5011845;28;20282;-71
2020/12/11 07:08:21;;;;;;;35.10;19.03;;;;;;;0.32;94.38;95189.19;5011103;28;20202;-73
2020/12/11 07:10:46;;;;;;;23.20;15.40;;;;;;;0.10;87.61;95180.13;5010066;28;20219;-71
2020/12/11 07:13:12;;;;;;;20.33;13.90;;;;;;;-0.04;87.51;95179.34;5006951;28;20184;-71
2020/12/11 07:15:38;;;;;;;20.70;14.27;;;;;;;-0.24;87.06;95182.94;5006676;28;20187;-72
2020/12/11 07:18:11;;;;;;;21.43;14.23;;;;;;;-0.24;87.49;95177.81;5009456;28;20636;-71
2020/12/11 07:20:36;;;;;;;21.40;14.63;;;;;;;-0.34;88.56;95175.63;5012185;28;20201;-75
2020/12/11 07:23:03;;;;;;;20.00;13.73;;;;;;;-0.46;89.18;95170.28;5000496;28;20668;-76
2020/12/11 07:25:29;;;;;;;19.63;13.27;;;;;;;-0.42;88.62;95161.16;5012012;28;20258;-75
2020/12/11 07:27:59;;;;;;;22.67;15.10;;;;;;;-0.36;88.80;95159.59;5010970;28;20612;-75
2020/12/11 07:30:24;;;;;;;20.43;14.03;;;;;;;-0.52;90.38;95155.63;5012395;28;20175;-75
2020/12/11 07:32:54;;;;;;;21.13;13.63;;;;;;;-0.44;88.98;95147.69;5010493;28;20214;-75
2020/12/11 07:35:21;;;;;;;20.17;14.07;;;;;;;-0.34;88.44;95142.19;5011906;28;20567;-77
2020/12/11 07:37:52;;;;;;;23.20;15.03;;;;;;;-0.42;88.48;95140.59;5009778;28;20530;-76
2020/12/11 07:40:18;;;;;;;23.17;14.87;;;;;;;-0.61;90.00;95140.56;5012457;28;20187;-76
2020/12/11 07:42:44;;;;;;;24.03;15.03;;;;;;;-0.32;88.79;95135.03;5010452;28;20219;-74
2020/12/11 07:45:10;;;;;;;22.10;14.07;;;;;;;-0.30;88.44;95133.06;5004331;28;20206;-74
2020/12/11 07:47:35;;;;;;;20.10;13.80;;;;;;;-0.44;88.81;95123.75;5012256;28;20561;-74
2020/12/11 07:50:06;;;;;;;23.00;14.83;;;;;;;-0.44;90.38;95129.69;5010305;28;20259;-71
2020/12/11 07:52:33;;;;;;;19.47;13.73;;;;;;;-0.38;89.50;95127.31;5010262;28;20562;-72
2020/12/11 07:54:58;;;;;;;21.90;14.37;;;;;;;-0.39;88.92;95134.22;5010853;28;20241;-74
2020/12/11 07:57:24;;;;;;;21.57;14.03;;;;;;;-0.42;88.39;95132.88;5011525;28;20175;-73
2020/12/11 08:00:05;;;;;;;21.13;14.37;;;;;;;-0.23;87.27;95123.56;5010132;28;20532;-74
2020/12/11 08:02:33;;;;;;;21.87;13.37;;;;;;;-0.28;87.29;95128.47;5011003;28;20667;-73
2020/12/11 08:04:58;;;;;;;20.10;13.47;;;;;;;-0.19;87.06;95134.22;5011378;28;20691;-73
2020/12/11 08:07:25;;;;;;;21.47;14.50;;;;;;;-0.07;86.37;95120.53;5011793;28;20210;-73
2020/12/11 08:09:51;;;;;;;20.50;13.13;;;;;;;0.08;85.24;95130.59;5010782;28;20171;-73
2020/12/11 08:12:16;;;;;;;20.00;13.93;;;;;;;-0.07;86.08;95122.31;5004744;28;20551;-73
2020/12/11 08:14:45;;;;;;;21.50;13.83;;;;;;;-0.05;85.56;95131.41;5010479;28;20183;-72
2020/12/11 08:17:12;;;;;;;19.63;13.63;;;;;;;0.08;85.19;95114.34;5005669;28;20223;-73
2020/12/11 08:19:39;;;;;;;21.33;14.17;;;;;;;0.16;85.02;95117.53;4999622;28;20217;-73
2020/12/11 08:22:14;;;;;;;19.13;13.30;;;;;;;0.28;84.79;95110.72;5010655;28;20671;-73
2020/12/11 08:24:41;;;;;;;21.80;14.43;;;;;;;0.32;84.28;95109.34;5002958;28;20281;-72
2020/12/11 08:27:20;;;;;;;21.90;13.93;;;;;;;0.35;85.36;95108.13;5004049;28;20188;-74
2020/12/11 08:30:13;;;;;;;22.43;14.57;;;;;;;0.44;85.57;95106.13;5011012;28;20178;-74
2020/12/11 08:32:38;;;;;;;22.60;14.17;;;;;;;0.39;84.84;95124.78;5009655;28;20211;-73
2020/12/11 08:35:23;;;;;;;19.83;13.37;;;;;;;0.32;84.13;95122.22;5010756;28;20222;-74
2020/12/11 08:37:52;;;;;;;22.27;13.97;;;;;;;0.38;85.16;95131.72;5010595;28;20187;-74
2020/12/11 08:40:17;;;;;;;20.67;14.23;;;;;;;0.45;85.31;95126.50;4979313;28;20176;-74
2020/12/11 08:43:06;;;;;;;20.83;13.70;;;;;;;0.40;84.48;95129.69;5010228;28;20222;-74
2020/12/11 08:45:37;;;;;;;20.17;13.77;;;;;;;0.43;84.11;95136.25;5011349;28;20218;-74
2020/12/11 08:48:19;;;;;;;21.10;13.83;;;;;;;0.55;83.47;95133.81;5009929;28;20218;-74
2020/12/11 08:51:00;;;;;;;17.90;12.80;;;;;;;0.65;83.34;95126.44;5009771;28;20207;-74
2020/12/11 08:53:28;;;;;;;20.30;12.90;;;;;;;0.85;81.97;95127.13;5010910;28;20578;-74
2020/12/11 08:55:53;;;;;;;20.63;13.57;;;;;;;0.97;82.20;95122.09;5010065;28;20262;-73
2020/12/11 08:58:19;;;;;;;18.90;13.23;;;;;;;1.07;81.12;95120.63;5001778;28;20266;-73
2020/12/11 09:00:44;;;;;;;19.43;13.47;;;;;;;1.16;80.56;95121.19;5010515;28;20179;-73
2020/12/11 09:03:10;;;;;;;21.30;14.20;;;;;;;1.31;80.83;95116.50;5014125;28;20290;-74
2020/12/11 09:05:35;;;;;;;19.97;13.47;;;;;;;1.40;79.78;95112.66;5014468;28;20194;-73
2020/12/11 09:08:01;;;;;;;20.57;13.37;;;;;;;1.45;79.98;95109.47;5014078;28;20186;-73
2020/12/11 09:10:26;;;;;;;20.60;13.07;;;;;;;1.68;78.21;95094.94;5010210;28;20535;-73
2020/12/11 09:12:53;;;;;;;17.27;12.57;;;;;;;1.60;79.02;95097.00;5008041;28;20206;-73
2020/12/11 09:15:20;;;;;;;18.97;12.30;;;;;;;1.78;78.13;95098.84;5014373;28;20175;-73
2020/12/11 09:17:46;;;;;;;16.80;12.00;;;;;;;1.83;78.51;95101.56;5013774;28;20234;-73
2020/12/11 09:20:12;;;;;;;18.20;12.07;;;;;;;1.79;78.20;95100.41;5019320;28;20679;-73
2020/12/11 09:22:38;;;;;;;15.77;11.70;;;;;;;1.92;77.97;95093.31;5013479;28;20207;-73
2020/12/11 09:25:05;;;;;;;17.97;12.30;;;;;;;1.84;77.85;95100.56;5013187;28;20187;-72
2020/12/11 09:27:31;;;;;;;17.63;12.70;;;;;;;1.87;77.60;95106.09;5014574;28;20195;-72
2020/12/11 09:30:09;;;;;;;16.50;12.43;;;;;;;1.79;78.73;95098.59;5013165;28;20238;-72
2020/12/11 09:35:39;;;;;;;16.13;11.23;;;;;;;1.97;76.95;95108.97;4944956;29;20603;-72
2020/12/11 09:38:04;;;;;;;15.63;11.40;;;;;;;2.17;77.67;95103.63;4952332;29;20193;-73
2020/12/11 09:40:42;;;;;;;18.00;12.30;;;;;;;2.11;76.98;95101.88;4953207;29;20197;-72
2020/12/11 09:56:09;;;;;;;15.57;11.07;;;;;;;2.15;76.48;95094.47;4953015;29;20181;-73
2020/12/11 09:58:38;;;;;;;14.47;10.37;;;;;;;2.30;76.07;95093.09;4953040;29;20258;-72
2020/12/11 10:01:06;;;;;;;13.17;9.93;;;;;;;2.09;76.92;95093.53;4952457;29;20194;-73
2020/12/11 10:03:36;;;;;;;15.57;11.03;;;;;;;2.41;76.25;95087.22;4953128;29;20205;-73
2020/12/11 10:06:06;;;;;;;16.17;11.57;;;;;;;2.51;75.44;95078.94;4971606;28;20458;-73
2020/12/11 10:08:31;;;;;;;14.53;10.10;;;;;;;2.59;75.61;95080.44;5013532;28;20183;-74
2020/12/11 10:10:56;;;;;;;15.50;11.37;;;;;;;2.59;75.64;95070.09;5012463;28;20527;-73
2020/12/11 10:13:22;;;;;;;11.97;9.50;;;;;;;2.78;76.17;95069.84;5011051;28;20187;-73
2020/12/11 10:15:47;;;;;;;12.67;9.43;;;;;;;2.97;74.15;95060.19;5003531;28;20171;-73
2020/12/11 10:18:13;;;;;;;14.17;10.17;;;;;;;3.04;73.66;95057.53;5009575;28;20227;-73
2020/12/11 10:20:41;;;;;;;12.47;9.23;;;;;;;3.07;73.51;95057.84;4997227;28;20644;-73
2020/12/11 10:23:06;;;;;;;14.33;10.40;;;;;;;3.17;73.71;95046.97;5013485;28;20207;-74
2020/12/11 10:25:31;;;;;;;13.07;9.10;;;;;;;3.05;73.28;95048.75;5011973;28;20599;-74
2020/12/11 10:27:57;;;;;;;15.67;10.50;;;;;;;3.11;73.69;95055.63;5012720;28;20205;-74
2020/12/11 10:30:23;;;;;;;14.67;10.73;;;;;;;3.25;73.56;95047.44;5013595;28;20632;-73
2020/12/11 10:32:48;;;;;;;14.93;9.87;;;;;;;3.20;73.42;95046.53;5012434;28;20200;-73
2020/12/11 10:35:13;;;;;;;13.20;9.60;;;;;;;3.03;73.54;95040.41;5013461;28;20214;-74
2020/12/11 10:37:39;;;;;;;12.73;10.10;;;;;;;3.23;72.97;95027.97;5012983;28;20185;-73
2020/12/11 10:40:05;;;;;;;13.67;9.70;;;;;;;2.97;74.19;95039.50;5013060;28;20267;-74
2020/12/11 10:42:31;;;;;;;15.13;10.73;;;;;;;2.93;74.46;95035.78;5012774;28;20298;-73
2020/12/11 10:44:57;;;;;;;14.47;9.73;;;;;;;3.04;74.04;95036.81;5012379;28;20196;-75
2020/12/11 10:47:22;;;;;;;13.00;9.53;;;;;;;3.11;73.45;95027.94;5012979;28;20230;-73
2020/12/11 10:49:47;;;;;;;13.13;9.80;;;;;;;2.90;73.42;95029.25;5012447;28;20660;-74
2020/12/11 10:52:14;;;;;;;12.40;9.30;;;;;;;2.96;73.97;95024.19;5012948;28;20261;-74
2020/12/11 10:54:40;;;;;;;12.33;9.60;;;;;;;2.98;73.73;95032.53;5012477;28;20199;-73
2020/12/11 10:57:05;;;;;;;12.00;9.63;;;;;;;3.24;72.50;95025.13;5026708;28;20187;-75
2020/12/11 10:59:31;;;;;;;12.03;9.03;;;;;;;3.25;71.46;95020.75;5012186;28;20191;-74
2020/12/11 11:01:56;;;;;;;12.77;9.87;;;;;;;3.31;71.70;95009.50;5012366;28;20209;-74
2020/12/11 11:04:22;;;;;;;12.03;9.03;;;;;;;3.36;70.16;95009.59;5012012;28;20191;-74
2020/12/11 11:07:01;;;;;;;11.20;9.00;;;;;;;3.12;72.00;95006.22;5011772;28;20198;-75
2020/12/11 11:20:33;;;;;;;12.33;9.17;;;;;;;3.17;71.64;94988.25;5012270;28;20186;-73
2020/12/11 11:26:02;;;;;;;14.03;9.90;;;;;;;3.20;72.58;94968.88;5004661;28;20186;-73
2020/12/11 11:28:27;;;;;;;12.47;9.33;;;;;;;3.22;72.17;94957.28;5003939;28;20195;-73
2020/12/11 11:30:53;;;;;;;13.87;9.53;;;;;;;3.42;71.85;94963.91;5010770;28;20517;-73
2020/12/11 11:33:18;;;;;;;13.27;10.17;;;;;;;3.07;73.45;94948.38;5012160;28;20191;-73
2020/12/11 11:35:46;;;;;;;14.30;10.07;;;;;;;3.14;73.20;94942.09;5011325;28;20191;-73
2020/12/11 11:38:12;;;;;;;12.57;9.70;;;;;;;2.99;73.87;94941.75;5011190;28;20246;-74
2020/12/11 11:40:39;;;;;;;14.27;10.53;;;;;;;2.89;74.13;94937.13;5011820;28;20180;-73
2020/12/11 11:43:05;;;;;;;16.00;11.30;;;;;;;2.84;74.60;94925.88;5009988;28;20211;-73
2020/12/11 11:45:35;;;;;;;14.63;10.07;;;;;;;2.86;74.31;94919.47;5010128;28;20532;-73
2020/12/11 11:48:01;;;;;;;13.53;10.13;;;;;;;2.78;75.51;94908.69;5010797;28;20175;-73
2020/12/11 11:53:10;;;;;;;15.40;10.43;;;;;;;2.90;75.72;94907.66;5010391;28;20195;-74
2020/12/11 11:55:36;;;;;;;14.47;10.73;;;;;;;2.88;75.50;94912.28;5011861;28;20258;-74
2020/12/11 11:58:01;;;;;;;17.83;10.87;;;;;;;2.86;76.62;94910.91;5010592;28;20293;-74
2020/12/11 12:00:27;;;;;;;16.67;10.47;;;;;;;3.03;76.12;94916.19;5010525;28;20718;-74